Time;durP1;ratioP1;P1;durP2;ratioP2;P2;SDS_P1;SDS_P2;PMS_P1;PMS_P2;Temp;Humidity;BMP_temperature;BMP_pressure;BME280_temperature;BME280_humidity;BME280_pressure;Samples;Min_cycle;Max_cycle;Signal;HPM_P1;HPM_P2
2022/12/28 00:00:48;;;;;;;;;;;;;;;6.09;51.29;101743.09;5377454;32;34969;-66
2022/12/28 00:03:50;;;;;;;;;;;;;;;5.95;52.19;101748.31;5345245;32;35534;-78
2022/12/28 00:06:52;;;;;;;;;;;;;;;6.18;51.82;101747.44;5378379;32;34707;-68
2022/12/28 00:09:54;;;;;;;;;;;;;;;5.96;52.70;101746.56;5383832;32;34550;-75
2022/12/28 00:12:56;;;;;;;;;;;;;;;6.46;51.50;101733.53;5359885;32;34616;-67
2022/12/28 00:16:01;;;;;;;;;;;;;;;6.85;50.24;101726.50;5392247;32;35291;-68
2022/12/28 00:19:05;;;;;;;;;;;;;;;5.95;52.11;101750.03;5365587;32;34199;-67
2022/12/28 00:22:07;;;;;;;;;;;;;;;5.75;53.22;101741.28;5392403;32;34250;-80
2022/12/28 00:25:09;;;;;;;;;;;;;;;5.74;53.17;101740.41;5380388;32;35556;-68
2022/12/28 00:28:11;;;;;;;;;;;;;;;6.21;52.04;101734.41;5380502;32;35661;-80
2022/12/28 00:31:13;;;;;;;;;;;;;;;6.11;52.44;101743.97;5379348;32;34973;-67
2022/12/28 00:34:15;;;;;;;;;;;;;;;5.71;53.46;101743.00;5370807;32;34895;-67
2022/12/28 00:37:17;;;;;;;;;;;;;;;5.34;54.64;101755.91;5391862;32;44758;-79
2022/12/28 00:40:18;;;;;;;;;;;;;;;5.28;54.86;101766.34;5376855;32;35673;-68
2022/12/28 00:43:25;;;;;;;;;;;;;;;4.96;56.38;101752.25;5373786;32;36454;-68
2022/12/28 00:46:27;;;;;;;;;;;;;;;5.02;56.02;101758.34;5345243;32;35608;-68
2022/12/28 00:49:28;;;;;;;;;;;;;;;5.05;55.86;101754.91;5369767;32;34392;-80
2022/12/28 00:52:30;;;;;;;;;;;;;;;5.04;55.67;101754.03;5332817;32;34684;-74
2022/12/28 00:55:33;;;;;;;;;;;;;;;4.70;56.74;101766.00;5366393;32;34577;-68
2022/12/28 00:58:35;;;;;;;;;;;;;;;5.47;54.26;101763.78;5382830;32;35810;-80
2022/12/28 01:01:37;;;;;;;;;;;;;;;4.78;56.23;101764.31;5378638;32;34965;-80
2022/12/28 01:04:39;;;;;;;;;;;;;;;5.01;55.82;101774.00;5394697;32;34824;-79
2022/12/28 01:07:41;;;;;;;;;;;;;;;4.70;56.80;101781.63;5354963;32;34235;-81
2022/12/28 01:10:43;;;;;;;;;;;;;;;4.60;57.04;101778.06;5359133;32;35082;-79
2022/12/28 01:13:45;;;;;;;;;;;;;;;4.84;56.14;101773.91;5350783;32;34684;-79
2022/12/28 01:16:46;;;;;;;;;;;;;;;4.57;56.93;101790.19;5359492;32;44992;-66
2022/12/28 01:19:48;;;;;;;;;;;;;;;4.49;57.16;101787.53;5361771;32;34969;-79
2022/12/28 01:22:54;;;;;;;;;;;;;;;4.82;56.35;101776.47;5348695;32;34237;-76
2022/12/28 01:26:00;;;;;;;;;;;;;;;4.93;56.06;101784.38;5360393;32;35361;-79
2022/12/28 01:29:02;;;;;;;;;;;;;;;5.55;54.57;101776.00;5352359;32;34326;-67
2022/12/28 01:32:04;;;;;;;;;;;;;;;5.10;55.88;101772.31;5342225;32;32881;-79
2022/12/28 01:35:06;;;;;;;;;;;;;;;5.56;54.59;101775.13;5343402;32;35731;-76
2022/12/28 01:38:08;;;;;;;;;;;;;;;4.94;56.40;101774.81;5352279;32;35243;-68
2022/12/28 01:41:12;;;;;;;;;;;;;;;5.32;55.47;101768.06;5361774;32;35107;-67
2022/12/28 01:44:14;;;;;;;;;;;;;;;5.35;55.45;101767.22;5347336;32;34733;-67
2022/12/28 01:47:17;;;;;;;;;;;;;;;5.26;55.59;101761.97;5368485;32;35157;-66
2022/12/28 01:50:20;;;;;;;;;;;;;;;4.96;56.53;101758.34;5364224;32;45122;-80
2022/12/28 01:53:22;;;;;;;;;;;;;;;4.56;57.20;101747.66;5340533;32;35528;-68
2022/12/28 01:56:24;;;;;;;;;;;;;;;5.04;55.98;101748.84;5350444;32;34911;-66
2022/12/28 01:59:27;;;;;;;;;;;;;;;5.14;55.70;101749.72;5335365;32;34720;-66
2022/12/28 02:02:29;;;;;;;;;;;;;;;5.18;55.24;101748.91;5350704;32;34708;-67
2022/12/28 02:05:32;;;;;;;;;;;;;;;5.21;55.31;101746.28;5354105;32;34733;-67
2022/12/28 02:08:40;;;;;;;;;;;;;;;4.95;55.97;101738.34;5372141;32;35767;-67
2022/12/28 02:11:42;;;;;;;;;;;;;;;4.65;56.62;101735.56;5345805;32;35882;-79
2022/12/28 02:14:44;;;;;;;;;;;;;;;4.83;56.05;101738.28;5361920;32;34447;-67
2022/12/28 02:17:46;;;;;;;;;;;;;;;3.80;59.63;101741.81;5359236;32;35291;-79
2022/12/28 02:21:06;;;;;;;;;;;;;;;4.23;57.71;101756.06;5368387;32;43475;-80
2022/12/28 02:24:17;;;;;;;;;;;;;;;3.55;59.86;101765.78;5371112;32;35330;-80
2022/12/28 02:27:37;;;;;;;;;;;;;;;2.82;62.64;101781.25;5376836;32;44443;-67
2022/12/28 02:30:42;;;;;;;;;;;;;;;2.56;63.54;101784.31;5381481;32;35455;-79
2022/12/28 02:33:53;;;;;;;;;;;;;;;2.63;63.19;101775.78;5376124;32;35356;-80
2022/12/28 02:36:59;;;;;;;;;;;;;;;2.73;63.43;101771.63;5380212;32;47084;-68
2022/12/28 02:40:03;;;;;;;;;;;;;;;2.32;64.03;101776.13;5379988;32;34639;-67
2022/12/28 02:43:04;;;;;;;;;;;;;;;3.09;62.51;101771.28;5382049;32;34796;-74
2022/12/28 02:52:58;;;;;;;;;;;;;;;3.13;61.92;101765.25;5349365;32;35510;-66
2022/12/28 02:56:09;;;;;;;;;;;;;;;3.25;61.73;101772.34;5396763;32;34787;-67
2022/12/28 02:59:11;;;;;;;;;;;;;;;3.39;60.91;101760.38;5367413;32;34311;-78
2022/12/28 03:02:24;;;;;;;;;;;;;;;2.61;63.53;101772.28;5393937;32;35166;-79
2022/12/28 03:09:17;;;;;;;;;;;;;;;2.49;64.48;101769.50;5367422;32;35483;-78
2022/12/28 03:12:25;;;;;;;;;;;;;;;2.74;64.21;101762.97;5385373;32;44842;-66
2022/12/28 03:15:33;;;;;;;;;;;;;;;3.25;62.44;101757.62;5368191;32;34832;-77
2022/12/28 03:31:58;;;;;;;;;;;;;;;3.56;61.38;101747.59;5384541;32;34326;-68
2022/12/28 03:35:00;;;;;;;;;;;;;;;3.03;62.42;101740.03;5378279;32;35427;-74
2022/12/28 03:38:02;;;;;;;;;;;;;;;3.17;62.58;101733.28;5381538;32;34419;-67
2022/12/28 03:41:27;;;;;;;;;;;;;;;3.13;63.16;101741.87;5366646;32;34910;-67
2022/12/28 03:44:31;;;;;;;;;;;;;;;2.68;63.78;101732.59;5383340;32;34285;-67
2022/12/28 03:47:33;;;;;;;;;;;;;;;3.99;59.62;101716.81;5368873;32;34652;-76
2022/12/28 03:50:35;;;;;;;;;;;;;;;3.58;60.19;101722.47;5357413;32;35545;-67
2022/12/28 03:53:41;;;;;;;;;;;;;;;3.73;59.02;101717.44;5372611;32;34857;-66
2022/12/28 03:56:47;;;;;;;;;;;;;;;3.03;61.37;101716.66;5367544;32;35103;-79
2022/12/28 03:59:49;;;;;;;;;;;;;;;2.79;62.77;101713.72;5377549;32;43632;-67
2022/12/28 04:02:51;;;;;;;;;;;;;;;2.81;63.61;101712.00;5368042;32;35200;-79
2022/12/28 04:05:53;;;;;;;;;;;;;;;2.74;63.42;101712.78;5389809;32;34848;-67
2022/12/28 04:08:55;;;;;;;;;;;;;;;2.63;64.09;101708.28;5385691;32;35599;-79
2022/12/28 04:11:57;;;;;;;;;;;;;;;4.11;59.37;101700.44;5380142;32;33944;-66
2022/12/28 04:14:59;;;;;;;;;;;;;;;4.34;58.31;101699.78;5395564;32;35118;-79
2022/12/28 04:18:01;;;;;;;;;;;;;;;4.22;58.16;101693.59;5368021;32;34875;-80
2022/12/28 04:21:03;;;;;;;;;;;;;;;3.65;59.97;101692.22;5375127;32;34850;-79
2022/12/28 04:24:05;;;;;;;;;;;;;;;2.89;62.01;101698.25;5369218;32;34273;-66
2022/12/28 04:27:07;;;;;;;;;;;;;;;3.35;61.20;101698.84;5377277;32;35012;-79
2022/12/28 04:30:09;;;;;;;;;;;;;;;3.60;59.07;101681.75;5383910;32;34528;-74
2022/12/28 04:33:11;;;;;;;;;;;;;;;3.68;59.92;101687.94;5377785;32;34942;-78
2022/12/28 04:36:14;;;;;;;;;;;;;;;3.91;58.34;101692.47;5392554;32;34861;-80
2022/12/28 04:39:16;;;;;;;;;;;;;;;3.32;60.16;101695.34;5362711;32;37179;-67
2022/12/28 04:42:18;;;;;;;;;;;;;;;3.97;58.56;101692.53;5395129;32;34600;-79
2022/12/28 04:45:20;;;;;;;;;;;;;;;3.15;60.95;101674.34;5368004;32;34731;-69
2022/12/28 04:48:23;;;;;;;;;;;;;;;3.14;61.38;101696.84;5387753;32;35534;-66
2022/12/28 04:51:25;;;;;;;;;;;;;;;2.79;62.73;101693.81;5341034;32;35940;-77
2022/12/28 04:54:27;;;;;;;;;;;;;;;2.76;63.54;101696.34;5335188;32;35176;-68
2022/12/28 04:57:29;;;;;;;;;;;;;;;2.79;62.89;101695.53;5373746;32;34300;-66
2022/12/28 05:00:31;;;;;;;;;;;;;;;2.85;62.48;101704.28;5364066;32;34903;-78
2022/12/28 05:03:33;;;;;;;;;;;;;;;3.13;62.10;101702.03;5373842;32;35626;-67
2022/12/28 05:06:35;;;;;;;;;;;;;;;2.76;63.65;101703.28;5352029;32;34227;-79
2022/12/28 05:09:37;;;;;;;;;;;;;;;2.57;63.82;101696.94;5362648;32;36542;-80
2022/12/28 05:12:39;;;;;;;;;;;;;;;2.44;64.68;101699.34;5367560;32;35457;-67
2022/12/28 05:15:41;;;;;;;;;;;;;;;3.09;62.59;101708.03;5354967;32;34993;-79
2022/12/28 05:18:43;;;;;;;;;;;;;;;2.76;64.17;101704.16;5374387;32;34989;-66
2022/12/28 05:21:45;;;;;;;;;;;;;;;2.92;63.73;101705.25;5369719;32;34811;-79
2022/12/28 05:24:47;;;;;;;;;;;;;;;3.47;62.14;101700.69;5372987;32;44925;-79
2022/12/28 05:27:49;;;;;;;;;;;;;;;3.57;61.30;101709.47;5356170;32;34969;-80
2022/12/28 05:30:51;;;;;;;;;;;;;;;3.15;62.32;101706.38;5358437;32;34518;-67
2022/12/28 05:33:53;;;;;;;;;;;;;;;4.13;59.96;101693.53;5370463;32;35660;-67
2022/12/28 05:36:55;;;;;;;;;;;;;;;3.74;60.07;101688.00;5375495;32;35401;-67
2022/12/28 05:39:57;;;;;;;;;;;;;;;4.12;59.65;101690.03;5394991;32;34485;-74
2022/12/28 05:42:59;;;;;;;;;;;;;;;3.64;60.59;101693.09;5378973;32;35753;-74
2022/12/28 05:46:05;;;;;;;;;;;;;;;3.91;60.22;101689.88;5393155;32;34851;-74
2022/12/28 05:49:07;;;;;;;;;;;;;;;3.30;61.47;101686.66;5380621;32;35051;-68
2022/12/28 05:52:09;;;;;;;;;;;;;;;3.46;60.87;101689.44;5360421;32;36087;-67
2022/12/28 05:55:11;;;;;;;;;;;;;;;3.38;61.11;101685.88;5390270;32;36035;-67
2022/12/28 05:58:13;;;;;;;;;;;;;;;3.28;61.80;101686.63;5379405;32;34659;-79
2022/12/28 06:01:16;;;;;;;;;;;;;;;2.82;63.38;101690.38;5392632;32;35607;-67
2022/12/28 06:04:19;;;;;;;;;;;;;;;2.83;64.28;101699.91;5362036;32;44580;-67
2022/12/28 06:07:20;;;;;;;;;;;;;;;3.86;60.65;101696.75;5391661;32;34755;-68
2022/12/28 06:10:22;;;;;;;;;;;;;;;3.90;60.06;101689.00;5365350;32;35141;-80
2022/12/28 06:13:24;;;;;;;;;;;;;;;3.59;60.95;101699.97;5383671;32;35251;-81
2022/12/28 06:16:27;;;;;;;;;;;;;;;3.17;61.79;101715.09;5379946;32;34322;-79
2022/12/28 06:19:29;;;;;;;;;;;;;;;3.35;62.07;101708.34;5364868;32;34254;-66
2022/12/28 06:22:31;;;;;;;;;;;;;;;3.51;61.80;101711.16;5394322;32;34324;-79
2022/12/28 06:25:33;;;;;;;;;;;;;;;3.31;61.57;101701.37;5379135;32;35455;-80
2022/12/28 06:28:35;;;;;;;;;;;;;;;3.39;61.27;101704.94;5395871;32;35737;-68
2022/12/28 06:31:38;;;;;;;;;;;;;;;3.10;62.80;101715.00;5376501;32;34697;-67
2022/12/28 06:34:40;;;;;;;;;;;;;;;3.20;62.02;101707.31;5379255;32;34322;-79
2022/12/28 06:37:41;;;;;;;;;;;;;;;4.01;59.65;101710.78;5392133;32;34127;-67
2022/12/28 06:40:43;;;;;;;;;;;;;;;4.23;58.79;101713.56;5382772;32;34904;-66
2022/12/28 06:44:06;;;;;;;;;;;;;;;4.24;58.18;101717.91;5397478;32;35812;-67
2022/12/28 06:47:08;;;;;;;;;;;;;;;3.58;59.32;101719.88;5383124;32;35721;-78
2022/12/28 06:50:09;;;;;;;;;;;;;;;3.84;58.96;101724.47;5388910;32;36676;-67
2022/12/28 06:53:11;;;;;;;;;;;;;;;3.49;59.29;101720.66;5373156;32;35614;-79
2022/12/28 06:56:21;;;;;;;;;;;;;;;3.43;59.80;101715.41;5361968;32;35823;-79
2022/12/28 06:59:22;;;;;;;;;;;;;;;3.38;59.56;101721.41;5381093;32;43598;-67
2022/12/28 07:02:24;;;;;;;;;;;;;;;3.37;59.86;101725.72;5370746;32;34271;-67
2022/12/28 07:05:27;;;;;;;;;;;;;;;2.73;62.29;101732.69;5372941;32;35453;-74
2022/12/28 07:08:29;;;;;;;;;;;;;;;2.85;62.71;101731.97;5362501;32;34285;-79
2022/12/28 07:11:31;;;;;;;;;;;;;;;2.93;61.68;101735.53;5365202;32;34423;-67
2022/12/28 07:14:33;;;;;;;;;;;;;;;2.37;63.42;101731.25;5374304;32;34717;-75
2022/12/28 07:17:34;;;;;;;;;;;;;;;3.10;62.05;101723.66;5365982;32;35091;-66
2022/12/28 07:20:36;;;;;;;;;;;;;;;2.39;63.76;101736.50;5374031;32;34272;-66
2022/12/28 07:23:41;;;;;;;;;;;;;;;2.22;64.53;101730.16;5357352;32;34809;-78
2022/12/28 07:26:43;;;;;;;;;;;;;;;2.57;63.87;101722.91;5360112;32;35366;-66
2022/12/28 07:29:45;;;;;;;;;;;;;;;2.66;64.05;101723.94;5357316;32;35251;-79
2022/12/28 07:32:47;;;;;;;;;;;;;;;2.38;63.76;101716.56;5381241;32;45646;-67
2022/12/28 07:35:49;;;;;;;;;;;;;;;3.42;61.52;101723.19;5384071;32;35664;-80
2022/12/28 07:38:51;;;;;;;;;;;;;;;2.98;63.25;101715.72;5360174;32;34971;-65
2022/12/28 07:41:53;;;;;;;;;;;;;;;2.18;64.62;101717.09;5353896;32;34926;-80
2022/12/28 07:44:54;;;;;;;;;;;;;;;2.88;63.13;101703.44;5359714;32;34620;-66
2022/12/28 07:47:56;;;;;;;;;;;;;;;3.26;61.66;101707.41;5370117;32;34176;-68
2022/12/28 07:51:18;;;;;;;;;;;;;;;3.13;61.74;101722.81;5348490;32;34975;-79
2022/12/28 07:54:20;;;;;;;;;;;;;;;2.56;63.92;101727.22;5356211;32;45004;-79
2022/12/28 07:57:22;;;;;;;;;;;;;;;3.29;62.60;101726.50;5372312;32;34698;-80
2022/12/28 08:00:25;;;;;;;;;;;;;;;3.03;61.79;101721.84;5361233;32;35359;-75
2022/12/28 08:03:27;;;;;;;;;;;;;;;2.56;63.61;101726.34;5372163;32;34203;-67
2022/12/28 08:06:29;;;;;;;;;;;;;;;1.93;65.19;101721.84;5354307;32;34433;-66
2022/12/28 08:09:31;;;;;;;;;;;;;;;3.17;62.42;101733.28;5374310;32;34880;-67
2022/12/28 08:12:33;;;;;;;;;;;;;;;2.71;62.87;101734.38;5355741;32;34849;-69
2022/12/28 08:15:35;;;;;;;;;;;;;;;3.82;60.23;101723.59;5368450;32;35009;-78
2022/12/28 08:18:37;;;;;;;;;;;;;;;2.92;63.40;101732.09;5390082;32;33603;-67
2022/12/28 08:21:40;;;;;;;;;;;;;;;2.88;63.13;101726.81;5361114;32;35437;-66
2022/12/28 08:24:42;;;;;;;;;;;;;;;3.55;61.16;101724.19;5369762;32;35454;-66
2022/12/28 08:27:44;;;;;;;;;;;;;;;3.37;61.01;101719.66;5354156;32;34869;-66
2022/12/28 08:30:46;;;;;;;;;;;;;;;4.34;58.35;101720.59;5369317;32;35295;-67
2022/12/28 08:33:48;;;;;;;;;;;;;;;4.06;59.48;101713.44;5377093;32;45223;-66
2022/12/28 08:36:50;;;;;;;;;;;;;;;3.98;59.04;101717.69;5365256;32;35381;-68
2022/12/28 08:39:52;;;;;;;;;;;;;;;3.69;59.64;101722.59;5396507;32;35593;-66
2022/12/28 08:43:00;;;;;;;;;;;;;;;3.26;62.00;101725.59;5380747;32;35090;-66
2022/12/28 08:46:02;;;;;;;;;;;;;;;3.46;61.56;101720.63;5383398;32;35060;-67
2022/12/28 08:49:04;;;;;;;;;;;;;;;3.61;60.79;101714.75;5380050;32;35396;-79
2022/12/28 08:52:06;;;;;;;;;;;;;;;3.82;60.21;101719.28;5358713;32;34525;-81
2022/12/28 08:55:08;;;;;;;;;;;;;;;3.96;59.54;101722.88;5388753;32;35408;-66
2022/12/28 08:58:10;;;;;;;;;;;;;;;4.80;57.47;101709.62;5379723;32;34953;-67
2022/12/28 09:01:16;;;;;;;;;;;;;;;4.25;57.97;101715.34;5394346;32;34855;-67
2022/12/28 09:04:20;;;;;;;;;;;;;;;3.42;61.15;101723.19;5376507;32;44865;-80
2022/12/28 09:07:22;;;;;;;;;;;;;;;4.35;58.47;101717.13;5394604;32;37032;-67
2022/12/28 09:10:24;;;;;;;;;;;;;;;4.25;59.22;101711.81;5382682;32;34752;-74
2022/12/28 09:13:28;;;;;;;;;;;;;;;4.79;57.60;101711.34;5354855;32;1046254;-80
2022/12/28 09:16:30;;;;;;;;;;;;;;;4.74;56.72;101706.97;5393042;32;35198;-68
2022/12/28 09:19:32;;;;;;;;;;;;;;;4.30;59.18;101708.41;5382266;32;34864;-68
2022/12/28 09:22:34;;;;;;;;;;;;;;;4.24;59.29;101695.34;5393281;32;34364;-79
2022/12/28 09:25:36;;;;;;;;;;;;;;;5.00;57.95;101687.13;5381125;32;34375;-79
2022/12/28 09:28:38;;;;;;;;;;;;;;;4.45;58.64;101685.97;5390775;32;35410;-80
2022/12/28 09:31:40;;;;;;;;;;;;;;;4.97;57.68;101678.44;5360976;32;34858;-79
2022/12/28 09:34:42;;;;;;;;;;;;;;;4.55;58.43;101680.81;5381257;32;34812;-67
2022/12/28 09:37:44;;;;;;;;;;;;;;;5.74;55.73;101671.72;5375377;32;35137;-79
2022/12/28 09:40:46;;;;;;;;;;;;;;;6.19;54.10;101666.53;5354360;32;35807;-80
2022/12/28 09:43:49;;;;;;;;;;;;;;;5.54;55.54;101669.03;5364482;32;35561;-67
2022/12/28 09:46:51;;;;;;;;;;;;;;;5.37;56.32;101669.03;5359476;32;34702;-79
2022/12/28 09:50:00;;;;;;;;;;;;;;;5.25;56.24;101667.25;5362889;32;34820;-68
2022/12/28 09:53:20;;;;;;;;;;;;;;;5.57;56.07;101663.84;5340226;32;35313;-67
2022/12/28 09:56:25;;;;;;;;;;;;;;;6.15;53.36;101650.87;5370871;32;44947;-68
2022/12/28 09:59:28;;;;;;;;;;;;;;;6.11;53.95;101646.50;5394430;32;34597;-67
2022/12/28 10:02:31;;;;;;;;;;;;;;;5.88;54.73;101631.72;5365005;32;34604;-66
2022/12/28 10:05:33;;;;;;;;;;;;;;;6.51;53.50;101627.31;5394066;32;34207;-67
2022/12/28 10:08:36;;;;;;;;;;;;;;;6.55;53.06;101615.09;5380008;32;34654;-68
2022/12/28 10:11:39;;;;;;;;;;;;;;;6.15;53.50;101602.13;5391597;32;34666;-79
2022/12/28 10:14:41;;;;;;;;;;;;;;;6.90;52.00;101611.50;5375036;32;36015;-67
2022/12/28 10:17:43;;;;;;;;;;;;;;;6.83;51.12;101602.81;5382655;32;35447;-79
2022/12/28 10:20:45;;;;;;;;;;;;;;;5.91;53.91;101615.22;5397287;32;34840;-80
2022/12/28 10:23:48;;;;;;;;;;;;;;;6.35;53.17;101606.44;5368546;32;47363;-79
2022/12/28 10:27:39;;;;;;;;;;;;;;;7.41;49.44;101596.41;5382603;32;35410;-80
2022/12/28 10:30:49;;;;;;;;;;;;;;;7.56;47.21;101596.28;5382643;32;35650;-79
2022/12/28 10:33:51;;;;;;;;;;;;;;;7.48;47.34;101604.19;5356939;32;45138;-68
2022/12/28 10:36:53;;;;;;;;;;;;;;;6.99;47.61;101588.78;5393408;32;34676;-67
2022/12/28 10:39:56;;;;;;;;;;;;;;;7.91;46.11;101601.22;5367274;32;35087;-76
2022/12/28 10:42:59;;;;;;;;;;;;;;;8.20;45.00;101602.72;5394570;32;35577;-80
2022/12/28 10:46:11;;;;;;;;;;;;;;;7.79;45.43;101591.75;5367994;32;35531;-70
2022/12/28 10:49:13;;;;;;;;;;;;;;;7.72;45.87;101589.16;5364905;32;35471;-67
2022/12/28 10:52:19;;;;;;;;;;;;;;;7.48;46.84;101592.87;5354103;32;44968;-67
2022/12/28 10:55:25;;;;;;;;;;;;;;;7.94;46.13;101590.72;5355692;32;35065;-67
2022/12/28 10:58:27;;;;;;;;;;;;;;;7.58;46.91;101590.16;5386873;32;35110;-67
2022/12/28 11:01:32;;;;;;;;;;;;;;;8.26;45.60;101585.19;5362149;32;35170;-79
2022/12/28 11:04:34;;;;;;;;;;;;;;;7.40;46.94;101595.50;5360617;32;34866;-67
2022/12/28 11:07:37;;;;;;;;;;;;;;;8.41;44.71;101597.28;5357320;32;35409;-80
2022/12/28 11:10:40;;;;;;;;;;;;;;;8.54;44.01;101591.00;5346805;32;37556;-79
2022/12/28 11:13:43;;;;;;;;;;;;;;;7.84;45.81;101595.16;5365444;32;34826;-66
2022/12/28 11:16:45;;;;;;;;;;;;;;;8.17;44.94;101585.25;5357435;32;35457;-79
2022/12/28 11:19:48;;;;;;;;;;;;;;;8.54;44.83;101584.91;5381440;32;44659;-79
2022/12/28 11:22:50;;;;;;;;;;;;;;;8.61;44.31;101576.94;5369384;32;34816;-66
2022/12/28 11:25:52;;;;;;;;;;;;;;;7.48;47.25;101578.03;5374504;32;35523;-80
2022/12/28 11:28:54;;;;;;;;;;;;;;;7.46;47.03;101574.53;5382350;32;34147;-67
2022/12/28 11:32:06;;;;;;;;;;;;;;;7.73;46.95;101567.34;5371630;32;35851;-79
2022/12/28 11:35:13;;;;;;;;;;;;;;;8.73;44.88;101567.19;5374136;32;34390;-68
2022/12/28 11:38:34;;;;;;;;;;;;;;;8.61;44.56;101540.25;5366426;32;34483;-79
2022/12/28 11:41:38;;;;;;;;;;;;;;;7.86;46.91;101550.69;5394097;32;34383;-80
2022/12/28 11:44:39;;;;;;;;;;;;;;;8.69;45.49;101540.16;5384593;32;35141;-81
2022/12/28 11:47:41;;;;;;;;;;;;;;;9.00;44.66;101522.25;5381633;32;35558;-80
2022/12/28 11:50:52;;;;;;;;;;;;;;;8.49;45.48;101532.53;5382754;32;35416;-82
2022/12/28 11:54:00;;;;;;;;;;;;;;;9.46;44.42;101514.53;5363038;32;44560;-80
2022/12/28 11:57:02;;;;;;;;;;;;;;;9.72;43.36;101516.75;5373250;32;34709;-68
2022/12/28 12:00:18;;;;;;;;;;;;;;;10.23;41.11;101498.28;5369732;32;35494;-68
2022/12/28 12:03:42;;;;;;;;;;;;;;;11.36;39.72;101490.50;5363150;32;44740;-80
2022/12/28 12:06:46;;;;;;;;;;;;;;;11.65;38.50;101491.50;5373622;32;35032;-68
2022/12/28 12:10:08;;;;;;;;;;;;;;;13.00;36.00;101475.31;5360875;32;44792;-69
2022/12/28 12:13:36;;;;;;;;;;;;;;;12.96;35.38;101465.81;5374985;32;35471;-82
2022/12/28 12:16:44;;;;;;;;;;;;;;;12.54;36.10;101484.66;5356447;32;35742;-75
2022/12/28 12:19:47;;;;;;;;;;;;;;;13.53;34.46;101478.03;5364809;32;43809;-68
2022/12/28 12:22:57;;;;;;;;;;;;;;;13.67;34.53;101457.28;5381277;32;34931;-68
2022/12/28 12:26:00;;;;;;;;;;;;;;;13.46;34.22;101461.53;5364485;32;35717;-76
2022/12/28 12:29:15;;;;;;;;;;;;;;;11.30;38.47;101469.59;5380033;32;35730;-67
2022/12/28 12:32:21;;;;;;;;;;;;;;;10.66;39.54;101459.72;5360958;32;44716;-68
2022/12/28 12:35:24;;;;;;;;;;;;;;;10.45;40.69;101463.69;5341255;32;34691;-67
2022/12/28 12:38:45;;;;;;;;;;;;;;;10.37;40.75;101455.06;5367272;32;34053;-76
2022/12/28 12:42:05;;;;;;;;;;;;;;;10.11;41.50;101456.47;5362474;32;47116;-81
2022/12/28 12:45:14;;;;;;;;;;;;;;;9.26;43.25;101455.41;5368047;32;35290;-67
2022/12/28 12:48:18;;;;;;;;;;;;;;;8.53;45.31;101452.16;5352931;32;35099;-81
2022/12/28 12:51:29;;;;;;;;;;;;;;;8.38;46.04;101448.00;5353324;32;44658;-66
2022/12/28 12:54:37;;;;;;;;;;;;;;;8.17;46.85;101442.97;5360845;32;35100;-67
2022/12/28 12:57:49;;;;;;;;;;;;;;;8.23;46.97;101440.28;5355286;32;36518;-81
2022/12/28 13:01:11;;;;;;;;;;;;;;;8.02;47.55;101430.94;5382530;32;44629;-81
2022/12/28 13:04:16;;;;;;;;;;;;;;;8.50;46.47;101428.59;5342235;32;35532;-68
2022/12/28 13:07:23;;;;;;;;;;;;;;;8.90;45.98;101431.53;5370837;32;45608;-80
2022/12/28 13:10:25;;;;;;;;;;;;;;;9.26;44.95;101424.78;5373456;32;35420;-82
2022/12/28 13:13:30;;;;;;;;;;;;;;;9.60;43.98;101424.22;5364516;32;34842;-67
2022/12/28 13:16:32;;;;;;;;;;;;;;;9.49;44.18;101419.16;5381091;32;34259;-75
2022/12/28 13:19:34;;;;;;;;;;;;;;;9.34;44.62;101416.78;5365435;32;35156;-68
2022/12/28 13:22:40;;;;;;;;;;;;;;;9.32;44.91;101408.94;5385790;32;33795;-68
2022/12/28 13:25:44;;;;;;;;;;;;;;;9.02;45.20;101405.12;5375607;32;35145;-67
2022/12/28 13:28:50;;;;;;;;;;;;;;;9.48;44.31;101401.69;5365228;32;34373;-68
2022/12/28 13:31:52;;;;;;;;;;;;;;;9.90;43.41;101404.38;5364298;32;44565;-67
2022/12/28 13:34:54;;;;;;;;;;;;;;;8.86;45.34;101398.38;5375858;32;34453;-69
2022/12/28 13:38:01;;;;;;;;;;;;;;;9.27;44.99;101399.44;5391296;32;34651;-81
2022/12/28 13:41:03;;;;;;;;;;;;;;;9.16;44.96;101402.25;5371939;32;35025;-81
2022/12/28 13:44:08;;;;;;;;;;;;;;;9.75;43.44;101389.78;5355027;32;35531;-82
2022/12/28 13:47:15;;;;;;;;;;;;;;;9.46;44.34;101385.09;5372365;32;35161;-67
2022/12/28 13:50:18;;;;;;;;;;;;;;;9.63;43.62;101385.63;5372776;32;44523;-67
2022/12/28 13:53:20;;;;;;;;;;;;;;;9.43;43.64;101365.03;5382183;32;36068;-68
2022/12/28 13:56:22;;;;;;;;;;;;;;;9.14;44.44;101364.69;5369706;32;34575;-81
2022/12/28 13:59:24;;;;;;;;;;;;;;;9.61;43.40;101363.81;5394024;32;34656;-81
2022/12/28 14:02:27;;;;;;;;;;;;;;;9.91;42.67;101349.19;5383418;32;34681;-67
2022/12/28 14:05:29;;;;;;;;;;;;;;;9.25;43.65;101360.13;5377193;32;34079;-67
2022/12/28 14:08:35;;;;;;;;;;;;;;;8.85;44.70;101352.94;5392390;32;34945;-67
2022/12/28 14:11:40;;;;;;;;;;;;;;;7.63;47.64;101362.47;5378991;32;34858;-82
2022/12/28 14:14:42;;;;;;;;;;;;;;;8.65;45.59;101352.41;5382856;32;34661;-68
2022/12/28 14:17:44;;;;;;;;;;;;;;;9.02;44.74;101357.91;5380356;32;34826;-68
2022/12/28 14:20:53;;;;;;;;;;;;;;;9.13;44.35;101360.31;5356632;32;43784;-67
2022/12/28 14:24:01;;;;;;;;;;;;;;;8.91;44.26;101359.84;5384793;32;36343;-68
2022/12/28 14:27:03;;;;;;;;;;;;;;;8.88;44.40;101360.75;5375776;32;34589;-68
2022/12/28 14:30:06;;;;;;;;;;;;;;;9.15;43.51;101359.44;5376666;32;35415;-81
2022/12/28 14:33:13;;;;;;;;;;;;;;;7.92;46.13;101359.53;5353053;32;35231;-82
2022/12/28 14:36:25;;;;;;;;;;;;;;;7.38;47.92;101363.63;5390360;32;44635;-81
2022/12/28 14:39:33;;;;;;;;;;;;;;;8.22;45.89;101357.38;5368613;32;34877;-69
2022/12/28 14:42:35;;;;;;;;;;;;;;;8.10;46.51;101354.03;5378176;32;35097;-68
2022/12/28 14:45:41;;;;;;;;;;;;;;;8.62;45.10;101347.19;5396072;32;35031;-69
2022/12/28 14:49:29;;;;;;;;;;;;;;;8.00;46.49;101341.97;5367084;32;34657;-68
2022/12/28 14:52:32;;;;;;;;;;;;;;;8.34;46.25;101337.12;5352997;32;35628;-83
2022/12/28 14:56:04;;;;;;;;;;;;;;;8.69;45.55;101333.09;5373519;32;35667;-82
2022/12/28 14:59:11;;;;;;;;;;;;;;;8.08;47.05;101334.87;5369409;32;35116;-77
2022/12/28 15:02:38;;;;;;;;;;;;;;;7.74;48.30;101338.81;5379291;32;35427;-67
2022/12/28 15:05:44;;;;;;;;;;;;;;;8.21;47.28;101347.78;5358305;32;34932;-68
2022/12/28 15:08:49;;;;;;;;;;;;;;;8.06;47.83;101351.50;5367998;32;45450;-67
2022/12/28 15:12:06;;;;;;;;;;;;;;;7.92;48.10;101348.16;5374864;32;47583;-81
2022/12/28 15:15:10;;;;;;;;;;;;;;;7.85;48.63;101353.47;5355424;32;35521;-82
2022/12/28 15:18:12;;;;;;;;;;;;;;;7.66;49.21;101364.19;5376192;32;35830;-81
2022/12/28 15:21:19;;;;;;;;;;;;;;;7.40;49.69;101360.09;5355066;32;34864;-67
2022/12/28 15:24:21;;;;;;;;;;;;;;;7.79;49.44;101368.38;5373745;32;44848;-81
2022/12/28 15:27:25;;;;;;;;;;;;;;;8.25;48.51;101362.59;5366052;32;35526;-68
2022/12/28 15:30:27;;;;;;;;;;;;;;;8.63;47.41;101355.06;5347494;32;34280;-82
2022/12/28 15:33:30;;;;;;;;;;;;;;;8.20;48.36;101373.13;5370050;32;34841;-67
2022/12/28 15:36:32;;;;;;;;;;;;;;;7.95;49.36;101375.19;5354912;32;35049;-68
2022/12/28 15:39:34;;;;;;;;;;;;;;;7.92;49.70;101372.63;5368269;32;35140;-70
2022/12/28 15:42:36;;;;;;;;;;;;;;;7.21;51.69;101376.88;5355248;32;35587;-67
2022/12/28 15:45:41;;;;;;;;;;;;;;;7.45;51.48;101368.78;5353800;32;35538;-82
2022/12/28 15:48:43;;;;;;;;;;;;;;;8.06;49.93;101356.72;5369522;32;35437;-68
2022/12/28 15:51:48;;;;;;;;;;;;;;;7.79;50.20;101357.91;5349757;32;44295;-81
2022/12/28 15:54:50;;;;;;;;;;;;;;;7.59;50.98;101360.78;5365924;32;34378;-81
2022/12/28 15:57:53;;;;;;;;;;;;;;;8.19;49.41;101352.19;5353853;32;34936;-82
2022/12/28 16:00:55;;;;;;;;;;;;;;;7.87;50.78;101356.09;5385278;32;34507;-69
2022/12/28 16:03:58;;;;;;;;;;;;;;;7.95;50.36;101354.25;5362473;32;35307;-67
2022/12/28 16:06:59;;;;;;;;;;;;;;;7.65;50.68;101363.31;5377343;32;36304;-80
2022/12/28 16:10:02;;;;;;;;;;;;;;;8.08;50.17;101358.44;5395345;32;35441;-82
2022/12/28 16:13:04;;;;;;;;;;;;;;;8.51;49.00;101341.28;5381024;32;35555;-68
2022/12/28 16:16:06;;;;;;;;;;;;;;;8.40;49.03;101357.16;5397306;32;35223;-75
2022/12/28 16:19:08;;;;;;;;;;;;;;;7.85;50.15;101350.84;5379381;32;34426;-67
2022/12/28 16:22:10;;;;;;;;;;;;;;;8.52;48.92;101341.25;5393353;32;34461;-81